sensor_id;sensor_type;location;lat;lon;timestamp;pressure;altitude;pressure_sealevel;temperature;humidity
13414;BME280;6778;48.136;11.386;2023-02-28T00:01:48;95767.75;;;-2.07;72.22
13414;BME280;6778;48.136;11.386;2023-02-28T00:04:18;95754.94;;;-2.07;72.46
13414;BME280;6778;48.136;11.386;2023-02-28T00:06:48;95754.13;;;-2.08;72.60
13414;BME280;6778;48.136;11.386;2023-02-28T00:09:21;95748.31;;;-2.10;72.76
13414;BME280;6778;48.136;11.386;2023-02-28T00:11:50;95750.03;;;-2.10;72.84
13414;BME280;6778;48.136;11.386;2023-02-28T00:14:21;95747.06;;;-2.15;72.90
13414;BME280;6778;48.136;11.386;2023-02-28T00:16:51;95750.19;;;-2.12;72.88
13414;BME280;6778;48.136;11.386;2023-02-28T00:19:21;95746.44;;;-2.08;73.02
13414;BME280;6778;48.136;11.386;2023-02-28T00:21:51;95748.94;;;-2.17;73.16
13414;BME280;6778;48.136;11.386;2023-02-28T00:24:24;95746.38;;;-2.17;73.15
13414;BME280;6778;48.136;11.386;2023-02-28T00:26:54;95746.13;;;-2.14;73.39
13414;BME280;6778;48.136;11.386;2023-02-28T00:29:25;95745.25;;;-2.25;73.44
13414;BME280;6778;48.136;11.386;2023-02-28T00:31:56;95747.56;;;-2.22;73.44
13414;BME280;6778;48.136;11.386;2023-02-28T00:34:27;95746.63;;;-2.21;73.58
13414;BME280;6778;48.136;11.386;2023-02-28T00:37:05;95747.13;;;-2.27;73.43
13414;BME280;6778;48.136;11.386;2023-02-28T00:39:39;95748.22;;;-2.29;73.33
13414;BME280;6778;48.136;11.386;2023-02-28T00:42:09;95744.06;;;-2.21;73.30
13414;BME280;6778;48.136;11.386;2023-02-28T00:44:39;95740.00;;;-2.23;73.47
13414;BME280;6778;48.136;11.386;2023-02-28T00:47:11;95741.63;;;-2.22;74.00
13414;BME280;6778;48.136;11.386;2023-02-28T00:49:42;95743.91;;;-2.29;73.55
13414;BME280;6778;48.136;11.386;2023-02-28T00:52:13;95741.63;;;-2.22;73.67
13414;BME280;6778;48.136;11.386;2023-02-28T00:54:45;95740.94;;;-2.24;73.47
13414;BME280;6778;48.136;11.386;2023-02-28T00:57:16;95741.47;;;-2.30;73.90
13414;BME280;6778;48.136;11.386;2023-02-28T00:59:46;95739.94;;;-2.33;74.52
13414;BME280;6778;48.136;11.386;2023-02-28T01:02:16;95741.56;;;-2.32;74.18
13414;BME280;6778;48.136;11.386;2023-02-28T01:04:48;95737.25;;;-2.31;74.32
13414;BME280;6778;48.136;11.386;2023-02-28T01:07:19;95735.31;;;-2.39;74.39
13414;BME280;6778;48.136;11.386;2023-02-28T01:09:51;95732.53;;;-2.36;74.78
13414;BME280;6778;48.136;11.386;2023-02-28T01:12:22;95734.38;;;-2.38;74.52
13414;BME280;6778;48.136;11.386;2023-02-28T01:14:52;95728.84;;;-2.43;74.81
13414;BME280;6778;48.136;11.386;2023-02-28T01:17:22;95727.09;;;-2.42;74.96
13414;BME280;6778;48.136;11.386;2023-02-28T01:19:54;95720.72;;;-2.48;74.96
13414;BME280;6778;48.136;11.386;2023-02-28T01:22:24;95725.84;;;-2.48;75.01
13414;BME280;6778;48.136;11.386;2023-02-28T01:24:57;95725.34;;;-2.42;75.15
13414;BME280;6778;48.136;11.386;2023-02-28T01:27:27;95723.50;;;-2.51;75.27
13414;BME280;6778;48.136;11.386;2023-02-28T01:30:00;95722.31;;;-2.47;75.34
13414;BME280;6778;48.136;11.386;2023-02-28T01:32:30;95721.22;;;-2.54;75.51
13414;BME280;6778;48.136;11.386;2023-02-28T01:35:01;95718.13;;;-2.48;75.51
13414;BME280;6778;48.136;11.386;2023-02-28T01:37:31;95724.34;;;-2.51;75.36
13414;BME280;6778;48.136;11.386;2023-02-28T01:40:05;95714.31;;;-2.54;75.42
13414;BME280;6778;48.136;11.386;2023-02-28T01:42:35;95717.84;;;-2.55;75.79
13414;BME280;6778;48.136;11.386;2023-02-28T01:45:22;95720.41;;;-2.55;76.39
13414;BME280;6778;48.136;11.386;2023-02-28T01:47:57;95711.31;;;-2.59;75.90
13414;BME280;6778;48.136;11.386;2023-02-28T01:50:33;95709.34;;;-2.55;75.52
13414;BME280;6778;48.136;11.386;2023-02-28T01:53:07;95717.53;;;-2.61;76.15
13414;BME280;6778;48.136;11.386;2023-02-28T01:55:47;95718.69;;;-2.65;75.86
13414;BME280;6778;48.136;11.386;2023-02-28T01:58:20;95713.06;;;-2.59;75.99
13414;BME280;6778;48.136;11.386;2023-02-28T02:00:52;95717.16;;;-2.57;76.02
13414;BME280;6778;48.136;11.386;2023-02-28T02:03:23;95707.81;;;-2.58;76.32
13414;BME280;6778;48.136;11.386;2023-02-28T02:05:53;95706.16;;;-2.68;76.70
13414;BME280;6778;48.136;11.386;2023-02-28T02:08:26;95709.47;;;-2.57;76.28
13414;BME280;6778;48.136;11.386;2023-02-28T02:11:02;95708.22;;;-2.62;76.87
13414;BME280;6778;48.136;11.386;2023-02-28T02:13:52;95706.69;;;-2.65;76.71
13414;BME280;6778;48.136;11.386;2023-02-28T02:16:37;95701.34;;;-2.62;77.31
13414;BME280;6778;48.136;11.386;2023-02-28T02:19:34;95700.22;;;-2.69;76.79
13414;BME280;6778;48.136;11.386;2023-02-28T02:22:26;95696.03;;;-2.70;77.22
13414;BME280;6778;48.136;11.386;2023-02-28T02:25:22;95699.75;;;-2.74;76.85
13414;BME280;6778;48.136;11.386;2023-02-28T02:31:27;95702.81;;;-2.80;77.26
13414;BME280;6778;48.136;11.386;2023-02-28T02:34:34;95694.81;;;-2.87;77.62
13414;BME280;6778;48.136;11.386;2023-02-28T02:37:15;95692.94;;;-2.85;77.58
13414;BME280;6778;48.136;11.386;2023-02-28T02:39:57;95689.69;;;-2.87;77.51
13414;BME280;6778;48.136;11.386;2023-02-28T02:42:40;95689.81;;;-2.88;77.46
13414;BME280;6778;48.136;11.386;2023-02-28T02:45:18;95687.81;;;-2.85;77.59
13414;BME280;6778;48.136;11.386;2023-02-28T02:47:53;95677.66;;;-2.96;78.00
13414;BME280;6778;48.136;11.386;2023-02-28T02:50:33;95688.69;;;-2.95;78.04
13414;BME280;6778;48.136;11.386;2023-02-28T02:53:08;95681.69;;;-2.93;77.80
13414;BME280;6778;48.136;11.386;2023-02-28T02:55:43;95685.78;;;-2.91;77.97
13414;BME280;6778;48.136;11.386;2023-02-28T02:58:18;95683.00;;;-2.99;78.28
13414;BME280;6778;48.136;11.386;2023-02-28T03:00:53;95676.25;;;-3.00;78.31
13414;BME280;6778;48.136;11.386;2023-02-28T03:03:28;95686.63;;;-3.02;78.38
13414;BME280;6778;48.136;11.386;2023-02-28T03:06:03;95678.81;;;-3.00;78.76
13414;BME280;6778;48.136;11.386;2023-02-28T03:08:35;95676.03;;;-2.97;78.69
13414;BME280;6778;48.136;11.386;2023-02-28T03:11:11;95687.75;;;-2.94;78.41
13414;BME280;6778;48.136;11.386;2023-02-28T03:14:04;95688.03;;;-2.97;78.74
13414;BME280;6778;48.136;11.386;2023-02-28T03:16:56;95693.81;;;-2.95;78.94
13414;BME280;6778;48.136;11.386;2023-02-28T03:19:42;95691.41;;;-2.97;79.18
13414;BME280;6778;48.136;11.386;2023-02-28T03:22:31;95687.75;;;-2.94;79.26
13414;BME280;6778;48.136;11.386;2023-02-28T03:25:08;95691.28;;;-2.95;79.44
13414;BME280;6778;48.136;11.386;2023-02-28T03:27:55;95692.38;;;-3.09;79.85
13414;BME280;6778;48.136;11.386;2023-02-28T03:30:39;95691.06;;;-3.04;79.95
13414;BME280;6778;48.136;11.386;2023-02-28T03:33:16;95693.31;;;-3.10;80.16
13414;BME280;6778;48.136;11.386;2023-02-28T03:35:54;95693.56;;;-3.13;80.29
13414;BME280;6778;48.136;11.386;2023-02-28T03:38:35;95694.50;;;-3.14;80.31
13414;BME280;6778;48.136;11.386;2023-02-28T03:41:12;95688.25;;;-3.21;80.71
13414;BME280;6778;48.136;11.386;2023-02-28T03:43:50;95688.75;;;-3.07;80.66
13414;BME280;6778;48.136;11.386;2023-02-28T03:46:27;95693.41;;;-3.12;80.09
13414;BME280;6778;48.136;11.386;2023-02-28T03:49:05;95685.88;;;-3.13;80.81
13414;BME280;6778;48.136;11.386;2023-02-28T03:51:39;95696.56;;;-3.08;81.01
13414;BME280;6778;48.136;11.386;2023-02-28T03:54:19;95700.63;;;-3.06;80.93
13414;BME280;6778;48.136;11.386;2023-02-28T03:56:59;95703.88;;;-3.04;80.80
13414;BME280;6778;48.136;11.386;2023-02-28T03:59:36;95698.88;;;-3.05;80.70
13414;BME280;6778;48.136;11.386;2023-02-28T04:02:08;95704.59;;;-3.13;81.15
13414;BME280;6778;48.136;11.386;2023-02-28T04:04:38;95704.84;;;-3.05;81.14
13414;BME280;6778;48.136;11.386;2023-02-28T04:07:16;95708.63;;;-2.99;80.54
13414;BME280;6778;48.136;11.386;2023-02-28T04:09:49;95721.25;;;-3.07;80.59
13414;BME280;6778;48.136;11.386;2023-02-28T04:12:19;95728.44;;;-3.01;80.68
13414;BME280;6778;48.136;11.386;2023-02-28T04:14:50;95729.00;;;-2.97;80.80
13414;BME280;6778;48.136;11.386;2023-02-28T04:17:21;95735.19;;;-3.00;80.79
13414;BME280;6778;48.136;11.386;2023-02-28T04:19:52;95737.84;;;-2.90;80.88
13414;BME280;6778;48.136;11.386;2023-02-28T04:22:24;95733.13;;;-2.85;80.55
13414;BME280;6778;48.136;11.386;2023-02-28T04:24:58;95734.78;;;-2.84;80.81
13414;BME280;6778;48.136;11.386;2023-02-28T04:27:28;95738.78;;;-2.70;80.29
13414;BME280;6778;48.136;11.386;2023-02-28T04:30:00;95734.47;;;-2.70;80.74
13414;BME280;6778;48.136;11.386;2023-02-28T04:32:31;95728.91;;;-2.75;80.61
13414;BME280;6778;48.136;11.386;2023-02-28T04:35:04;95735.28;;;-2.69;80.51
13414;BME280;6778;48.136;11.386;2023-02-28T04:37:37;95737.41;;;-2.75;80.88
13414;BME280;6778;48.136;11.386;2023-02-28T04:40:11;95729.66;;;-2.42;80.37
13414;BME280;6778;48.136;11.386;2023-02-28T04:42:41;95738.34;;;-2.55;80.41
13414;BME280;6778;48.136;11.386;2023-02-28T04:45:11;95734.38;;;-2.38;80.19
13414;BME280;6778;48.136;11.386;2023-02-28T04:47:42;95737.72;;;-2.47;79.98
13414;BME280;6778;48.136;11.386;2023-02-28T04:50:12;95742.84;;;-2.47;80.57
13414;BME280;6778;48.136;11.386;2023-02-28T04:52:42;95740.59;;;-2.40;80.59
13414;BME280;6778;48.136;11.386;2023-02-28T04:55:15;95744.63;;;-2.38;80.37
13414;BME280;6778;48.136;11.386;2023-02-28T04:57:45;95742.81;;;-2.26;80.12
13414;BME280;6778;48.136;11.386;2023-02-28T05:00:16;95747.41;;;-2.30;80.15
13414;BME280;6778;48.136;11.386;2023-02-28T05:02:46;95746.97;;;-2.35;80.24
13414;BME280;6778;48.136;11.386;2023-02-28T05:05:16;95749.19;;;-2.21;80.16
13414;BME280;6778;48.136;11.386;2023-02-28T05:07:48;95744.38;;;-2.14;79.92
13414;BME280;6778;48.136;11.386;2023-02-28T05:10:21;95741.75;;;-2.24;79.97
13414;BME280;6778;48.136;11.386;2023-02-28T05:12:51;95754.28;;;-2.30;80.30
13414;BME280;6778;48.136;11.386;2023-02-28T05:15:22;95756.91;;;-2.21;80.12
13414;BME280;6778;48.136;11.386;2023-02-28T05:17:52;95745.19;;;-2.13;80.41
13414;BME280;6778;48.136;11.386;2023-02-28T05:20:22;95749.34;;;-2.22;80.48
13414;BME280;6778;48.136;11.386;2023-02-28T05:22:52;95748.53;;;-2.23;80.55
13414;BME280;6778;48.136;11.386;2023-02-28T05:25:25;95748.84;;;-2.06;79.79
13414;BME280;6778;48.136;11.386;2023-02-28T05:27:55;95753.97;;;-2.16;80.17
13414;BME280;6778;48.136;11.386;2023-02-28T05:30:26;95754.31;;;-2.21;80.71
13414;BME280;6778;48.136;11.386;2023-02-28T05:32:59;95752.19;;;-2.15;80.71
13414;BME280;6778;48.136;11.386;2023-02-28T05:35:30;95755.81;;;-2.18;80.59
13414;BME280;6778;48.136;11.386;2023-02-28T05:38:01;95753.19;;;-2.07;80.37
13414;BME280;6778;48.136;11.386;2023-02-28T05:40:35;95750.59;;;-2.16;80.66
13414;BME280;6778;48.136;11.386;2023-02-28T05:43:10;95751.06;;;-2.02;80.48
13414;BME280;6778;48.136;11.386;2023-02-28T05:45:41;95758.03;;;-2.04;80.16
13414;BME280;6778;48.136;11.386;2023-02-28T05:48:11;95755.78;;;-1.97;80.57
13414;BME280;6778;48.136;11.386;2023-02-28T05:50:41;95745.28;;;-1.84;80.77
13414;BME280;6778;48.136;11.386;2023-02-28T05:53:13;95747.91;;;-2.05;80.20
13414;BME280;6778;48.136;11.386;2023-02-28T05:55:46;95750.59;;;-2.16;80.66
13414;BME280;6778;48.136;11.386;2023-02-28T05:58:17;95746.44;;;-2.08;80.27
13414;BME280;6778;48.136;11.386;2023-02-28T06:00:48;95754.25;;;-2.09;80.23
13414;BME280;6778;48.136;11.386;2023-02-28T06:03:18;95766.66;;;-2.14;80.03
13414;BME280;6778;48.136;11.386;2023-02-28T06:05:48;95766.66;;;-2.14;79.74
13414;BME280;6778;48.136;11.386;2023-02-28T06:08:18;95770.41;;;-2.18;80.24
13414;BME280;6778;48.136;11.386;2023-02-28T06:10:51;95769.59;;;-2.19;80.27
13414;BME280;6778;48.136;11.386;2023-02-28T06:13:21;95773.56;;;-2.36;79.64
13414;BME280;6778;48.136;11.386;2023-02-28T06:15:51;95776.22;;;-2.37;79.51
13414;BME280;6778;48.136;11.386;2023-02-28T06:18:22;95774.91;;;-2.32;79.26
13414;BME280;6778;48.136;11.386;2023-02-28T06:20:53;95773.97;;;-2.31;79.75
13414;BME280;6778;48.136;11.386;2023-02-28T06:23:24;95779.63;;;-2.37;79.98
13414;BME280;6778;48.136;11.386;2023-02-28T06:25:57;95774.09;;;-2.32;79.81
13414;BME280;6778;48.136;11.386;2023-02-28T06:28:28;95775.41;;;-2.38;80.29
13414;BME280;6778;48.136;11.386;2023-02-28T06:31:04;95789.19;;;-2.39;80.19
13414;BME280;6778;48.136;11.386;2023-02-28T06:33:35;95786.38;;;-2.36;80.09
13414;BME280;6778;48.136;11.386;2023-02-28T06:36:08;95793.25;;;-2.36;79.97
13414;BME280;6778;48.136;11.386;2023-02-28T06:38:48;95800.38;;;-2.40;79.84
13414;BME280;6778;48.136;11.386;2023-02-28T06:41:26;95802.31;;;-2.32;79.62
13414;BME280;6778;48.136;11.386;2023-02-28T06:44:12;95808.88;;;-2.39;79.81
13414;BME280;6778;48.136;11.386;2023-02-28T06:46:44;95806.91;;;-2.36;79.99
13414;BME280;6778;48.136;11.386;2023-02-28T06:49:15;95811.91;;;-2.34;79.85
13414;BME280;6778;48.136;11.386;2023-02-28T06:51:46;95810.72;;;-2.30;79.78
13414;BME280;6778;48.136;11.386;2023-02-28T06:54:17;95807.56;;;-2.34;79.66
13414;BME280;6778;48.136;11.386;2023-02-28T06:56:50;95815.22;;;-2.23;79.66
13414;BME280;6778;48.136;11.386;2023-02-28T06:59:21;95810.50;;;-2.17;79.61
13414;BME280;6778;48.136;11.386;2023-02-28T07:01:51;95809.81;;;-2.20;79.67
13414;BME280;6778;48.136;11.386;2023-02-28T07:04:23;95822.66;;;-2.20;79.63
13414;BME280;6778;48.136;11.386;2023-02-28T07:06:54;95816.34;;;-2.15;79.54
13414;BME280;6778;48.136;11.386;2023-02-28T07:09:24;95819.28;;;-2.20;79.59
13414;BME280;6778;48.136;11.386;2023-02-28T07:12:00;95819.13;;;-2.18;79.63
13414;BME280;6778;48.136;11.386;2023-02-28T07:14:30;95824.78;;;-2.25;80.04
13414;BME280;6778;48.136;11.386;2023-02-28T07:17:01;95829.41;;;-2.18;79.91
13414;BME280;6778;48.136;11.386;2023-02-28T07:19:31;95828.41;;;-2.06;79.83
13414;BME280;6778;48.136;11.386;2023-02-28T07:22:02;95831.78;;;-2.06;79.33
13414;BME280;6778;48.136;11.386;2023-02-28T07:24:32;95831.47;;;-2.12;79.16
13414;BME280;6778;48.136;11.386;2023-02-28T07:27:05;95832.03;;;-2.09;78.83
13414;BME280;6778;48.136;11.386;2023-02-28T07:29:35;95831.34;;;-2.11;78.99
13414;BME280;6778;48.136;11.386;2023-02-28T07:32:06;95828.13;;;-1.52;79.79
13414;BME280;6778;48.136;11.386;2023-02-28T07:34:36;95828.50;;;-1.56;78.07
13414;BME280;6778;48.136;11.386;2023-02-28T07:37:06;95816.53;;;-1.77;78.18
13414;BME280;6778;48.136;11.386;2023-02-28T07:39:37;95822.81;;;-1.90;78.76
13414;BME280;6778;48.136;11.386;2023-02-28T07:42:12;95821.88;;;-2.10;78.66
13414;BME280;6778;48.136;11.386;2023-02-28T07:44:43;95818.81;;;-2.04;78.99
13414;BME280;6778;48.136;11.386;2023-02-28T07:47:13;95828.84;;;-2.01;78.96
13414;BME280;6778;48.136;11.386;2023-02-28T07:49:45;95829.38;;;-1.98;78.68
13414;BME280;6778;48.136;11.386;2023-02-28T07:52:15;95827.56;;;-1.86;78.75
13414;BME280;6778;48.136;11.386;2023-02-28T07:54:46;95831.44;;;-1.92;78.26
13414;BME280;6778;48.136;11.386;2023-02-28T07:57:19;95824.56;;;-1.91;78.30
13414;BME280;6778;48.136;11.386;2023-02-28T07:59:49;95825.59;;;-1.73;78.08
13414;BME280;6778;48.136;11.386;2023-02-28T08:02:19;95818.69;;;-1.82;77.95
13414;BME280;6778;48.136;11.386;2023-02-28T08:04:50;95824.06;;;-1.85;78.27
13414;BME280;6778;48.136;11.386;2023-02-28T08:07:20;95826.78;;;-1.77;78.31
13414;BME280;6778;48.136;11.386;2023-02-28T08:09:50;95833.81;;;-1.79;78.24
13414;BME280;6778;48.136;11.386;2023-02-28T08:12:23;95842.97;;;-1.86;78.29
13414;BME280;6778;48.136;11.386;2023-02-28T08:14:54;95833.56;;;-1.76;77.94
13414;BME280;6778;48.136;11.386;2023-02-28T08:17:24;95846.63;;;-1.88;78.34
13414;BME280;6778;48.136;11.386;2023-02-28T08:19:54;95854.19;;;-1.56;78.14
13414;BME280;6778;48.136;11.386;2023-02-28T08:22:25;95841.00;;;-1.73;77.48
13414;BME280;6778;48.136;11.386;2023-02-28T08:24:55;95852.94;;;-1.31;77.06
13414;BME280;6778;48.136;11.386;2023-02-28T08:27:28;95854.31;;;-1.27;77.94
13414;BME280;6778;48.136;11.386;2023-02-28T08:29:58;95859.41;;;-1.37;76.37
13414;BME280;6778;48.136;11.386;2023-02-28T08:32:29;95860.34;;;-1.07;77.13
13414;BME280;6778;48.136;11.386;2023-02-28T08:34:59;95853.09;;;-1.23;75.83
13414;BME280;6778;48.136;11.386;2023-02-28T08:37:30;95858.72;;;-0.89;75.67
13414;BME280;6778;48.136;11.386;2023-02-28T08:40:07;95849.03;;;-0.28;74.92
13414;BME280;6778;48.136;11.386;2023-02-28T08:42:43;95853.91;;;-0.53;74.33
13414;BME280;6778;48.136;11.386;2023-02-28T08:45:14;95863.13;;;-0.61;74.24
13414;BME280;6778;48.136;11.386;2023-02-28T08:47:45;95865.34;;;-1.06;74.48
13414;BME280;6778;48.136;11.386;2023-02-28T08:50:15;95869.63;;;-0.37;73.90
13414;BME280;6778;48.136;11.386;2023-02-28T08:52:46;95863.38;;;0.14;72.18
13414;BME280;6778;48.136;11.386;2023-02-28T08:55:16;95872.28;;;-0.68;72.60
13414;BME280;6778;48.136;11.386;2023-02-28T08:57:49;95865.53;;;-0.69;73.50
13414;BME280;6778;48.136;11.386;2023-02-28T09:00:21;95865.38;;;-0.87;72.80
13414;BME280;6778;48.136;11.386;2023-02-28T09:02:51;95871.50;;;-0.59;73.93
13414;BME280;6778;48.136;11.386;2023-02-28T09:05:22;95869.72;;;-0.68;73.26
13414;BME280;6778;48.136;11.386;2023-02-28T09:07:52;95867.28;;;-0.02;72.84
13414;BME280;6778;48.136;11.386;2023-02-28T09:10:23;95864.44;;;0.11;71.34
13414;BME280;6778;48.136;11.386;2023-02-28T09:12:56;95869.50;;;-0.45;71.69
13414;BME280;6778;48.136;11.386;2023-02-28T09:15:26;95869.84;;;-0.69;72.66
13414;BME280;6778;48.136;11.386;2023-02-28T09:17:56;95871.94;;;-0.44;71.81
13414;BME280;6778;48.136;11.386;2023-02-28T09:20:27;95871.38;;;-0.09;71.99
13414;BME280;6778;48.136;11.386;2023-02-28T09:22:57;95881.50;;;-0.75;72.61
13414;BME280;6778;48.136;11.386;2023-02-28T09:25:27;95883.53;;;-0.69;73.64
13414;BME280;6778;48.136;11.386;2023-02-28T09:28:00;95884.34;;;-0.78;73.21
13414;BME280;6778;48.136;11.386;2023-02-28T09:30:30;95889.38;;;-0.67;72.98
13414;BME280;6778;48.136;11.386;2023-02-28T09:33:01;95885.13;;;-0.87;73.21
13414;BME280;6778;48.136;11.386;2023-02-28T09:35:31;95891.38;;;-0.70;73.41
13414;BME280;6778;48.136;11.386;2023-02-28T09:38:02;95894.91;;;-0.81;73.54
13414;BME280;6778;48.136;11.386;2023-02-28T09:40:37;95900.72;;;-0.69;73.13
13414;BME280;6778;48.136;11.386;2023-02-28T09:43:14;95898.03;;;-0.58;72.34
13414;BME280;6778;48.136;11.386;2023-02-28T09:45:51;95904.94;;;-0.59;73.76
13414;BME280;6778;48.136;11.386;2023-02-28T09:48:29;95899.16;;;-0.32;72.92
13414;BME280;6778;48.136;11.386;2023-02-28T09:51:21;95905.13;;;-0.31;72.44
13414;BME280;6778;48.136;11.386;2023-02-28T09:53:57;95912.56;;;-0.09;72.47
13414;BME280;6778;48.136;11.386;2023-02-28T09:56:33;95918.94;;;-0.32;72.07
13414;BME280;6778;48.136;11.386;2023-02-28T09:59:25;95919.72;;;-0.41;72.38
13414;BME280;6778;48.136;11.386;2023-02-28T10:02:10;95920.53;;;-0.41;71.95
13414;BME280;6778;48.136;11.386;2023-02-28T10:04:51;95915.00;;;-0.46;72.05
13414;BME280;6778;48.136;11.386;2023-02-28T10:07:40;95922.44;;;-0.52;72.12
13414;BME280;6778;48.136;11.386;2023-02-28T10:10:22;95913.38;;;-0.37;70.88
13414;BME280;6778;48.136;11.386;2023-02-28T10:12:58;95915.25;;;-0.49;71.24
13414;BME280;6778;48.136;11.386;2023-02-28T10:15:35;95917.19;;;0.07;70.64
13414;BME280;6778;48.136;11.386;2023-02-28T10:18:12;95917.31;;;-0.23;71.37
13414;BME280;6778;48.136;11.386;2023-02-28T10:20:45;95924.88;;;-0.22;70.64
13414;BME280;6778;48.136;11.386;2023-02-28T10:23:20;95918.94;;;-0.03;72.02
13414;BME280;6778;48.136;11.386;2023-02-28T10:25:57;95928.88;;;0.58;68.78
13414;BME280;6778;48.136;11.386;2023-02-28T10:28:29;95933.31;;;0.66;68.18
13414;BME280;6778;48.136;11.386;2023-02-28T10:31:04;95927.16;;;0.49;68.83
13414;BME280;6778;48.136;11.386;2023-02-28T10:33:35;95932.56;;;0.46;69.20
13414;BME280;6778;48.136;11.386;2023-02-28T10:36:14;95929.34;;;0.24;69.04
13414;BME280;6778;48.136;11.386;2023-02-28T10:38:48;95944.38;;;0.19;69.15
13414;BME280;6778;48.136;11.386;2023-02-28T10:41:30;95940.31;;;0.36;69.88
13414;BME280;6778;48.136;11.386;2023-02-28T10:44:15;95945.41;;;0.75;67.94
13414;BME280;6778;48.136;11.386;2023-02-28T10:46:52;95945.47;;;0.36;68.83
13414;BME280;6778;48.136;11.386;2023-02-28T10:49:26;95947.09;;;0.37;67.96
13414;BME280;6778;48.136;11.386;2023-02-28T10:52:00;95937.63;;;0.28;68.50
13414;BME280;6778;48.136;11.386;2023-02-28T10:54:34;95953.25;;;0.73;68.44
13414;BME280;6778;48.136;11.386;2023-02-28T10:57:07;95938.78;;;1.00;68.30
13414;BME280;6778;48.136;11.386;2023-02-28T10:59:38;95942.97;;;0.64;67.72
13414;BME280;6778;48.136;11.386;2023-02-28T11:02:32;95947.06;;;0.57;67.82
13414;BME280;6778;48.136;11.386;2023-02-28T11:05:24;95952.72;;;1.07;66.45
13414;BME280;6778;48.136;11.386;2023-02-28T11:07:56;95957.09;;;1.34;65.71
13414;BME280;6778;48.136;11.386;2023-02-28T11:10:32;95948.06;;;2.55;63.25
13414;BME280;6778;48.136;11.386;2023-02-28T11:13:03;95946.78;;;2.33;62.05
13414;BME280;6778;48.136;11.386;2023-02-28T11:15:35;95959.97;;;1.58;63.14
13414;BME280;6778;48.136;11.386;2023-02-28T11:18:24;95947.03;;;2.04;62.39
13414;BME280;6778;48.136;11.386;2023-02-28T11:20:59;95965.16;;;1.94;61.14
13414;BME280;6778;48.136;11.386;2023-02-28T11:23:35;95948.47;;;1.88;62.35
13414;BME280;6778;48.136;11.386;2023-02-28T11:26:07;95957.78;;;0.99;64.49
13414;BME280;6778;48.136;11.386;2023-02-28T11:28:40;95957.06;;;1.06;64.54
13414;BME280;6778;48.136;11.386;2023-02-28T11:31:17;95944.47;;;1.03;63.99
13414;BME280;6778;48.136;11.386;2023-02-28T11:33:53;95949.03;;;0.72;64.87
13414;BME280;6778;48.136;11.386;2023-02-28T11:36:26;95938.69;;;0.92;65.62
13414;BME280;6778;48.136;11.386;2023-02-28T11:39:00;95938.38;;;1.77;64.03
13414;BME280;6778;48.136;11.386;2023-02-28T11:41:53;95941.53;;;2.25;64.08
13414;BME280;6778;48.136;11.386;2023-02-28T11:44:47;95932.22;;;2.32;62.64
13414;BME280;6778;48.136;11.386;2023-02-28T11:47:33;95922.97;;;2.73;61.91
13414;BME280;6778;48.136;11.386;2023-02-28T11:50:44;95923.31;;;2.52;59.99
13414;BME280;6778;48.136;11.386;2023-02-28T11:53:22;95915.28;;;2.89;59.18
13414;BME280;6778;48.136;11.386;2023-02-28T11:56:03;95918.03;;;3.22;58.77
13414;BME280;6778;48.136;11.386;2023-02-28T11:58:49;95913.69;;;3.31;59.44
13414;BME280;6778;48.136;11.386;2023-02-28T12:01:37;95902.00;;;3.18;58.52
13414;BME280;6778;48.136;11.386;2023-02-28T12:04:24;95904.75;;;3.83;58.74
13414;BME280;6778;48.136;11.386;2023-02-28T12:07:08;95907.69;;;4.05;57.91
13414;BME280;6778;48.136;11.386;2023-02-28T12:09:52;95903.09;;;3.58;57.36
13414;BME280;6778;48.136;11.386;2023-02-28T12:12:40;95902.47;;;3.14;58.43
13414;BME280;6778;48.136;11.386;2023-02-28T12:18:31;95900.69;;;3.14;57.92
13414;BME280;6778;48.136;11.386;2023-02-28T12:21:17;95903.66;;;2.59;58.97
13414;BME280;6778;48.136;11.386;2023-02-28T12:24:28;95896.69;;;2.86;59.69
13414;BME280;6778;48.136;11.386;2023-02-28T12:27:06;95897.63;;;2.07;61.53
13414;BME280;6778;48.136;11.386;2023-02-28T12:29:46;95885.59;;;2.67;60.67
13414;BME280;6778;48.136;11.386;2023-02-28T12:32:23;95888.00;;;2.95;59.86
13414;BME280;6778;48.136;11.386;2023-02-28T12:35:01;95880.59;;;2.66;61.04
13414;BME280;6778;48.136;11.386;2023-02-28T12:37:36;95879.50;;;2.51;60.59
13414;BME280;6778;48.136;11.386;2023-02-28T12:40:16;95880.97;;;2.79;60.89
13414;BME280;6778;48.136;11.386;2023-02-28T12:42:51;95871.66;;;2.94;60.26
13414;BME280;6778;48.136;11.386;2023-02-28T12:45:25;95873.66;;;3.09;59.74
13414;BME280;6778;48.136;11.386;2023-02-28T12:48:00;95877.19;;;2.39;60.52
13414;BME280;6778;48.136;11.386;2023-02-28T12:50:35;95869.63;;;2.72;60.72
13414;BME280;6778;48.136;11.386;2023-02-28T12:53:12;95872.25;;;2.80;61.64
13414;BME280;6778;48.136;11.386;2023-02-28T12:55:54;95864.28;;;3.08;61.68
13414;BME280;6778;48.136;11.386;2023-02-28T12:58:33;95863.00;;;3.12;60.77
13414;BME280;6778;48.136;11.386;2023-02-28T13:04:28;95866.59;;;3.19;60.05
13414;BME280;6778;48.136;11.386;2023-02-28T13:07:40;95862.44;;;3.34;59.53
13414;BME280;6778;48.136;11.386;2023-02-28T13:10:16;95879.84;;;3.24;59.66
13414;BME280;6778;48.136;11.386;2023-02-28T13:12:54;95866.78;;;3.34;60.64
13414;BME280;6778;48.136;11.386;2023-02-28T13:15:27;95860.81;;;3.41;59.32
13414;BME280;6778;48.136;11.386;2023-02-28T13:17:59;95852.31;;;3.90;60.23
13414;BME280;6778;48.136;11.386;2023-02-28T13:20:35;95867.47;;;4.58;59.56
13414;BME280;6778;48.136;11.386;2023-02-28T13:23:37;95867.22;;;4.20;57.31
13414;BME280;6778;48.136;11.386;2023-02-28T13:26:11;95871.72;;;4.18;58.36
13414;BME280;6778;48.136;11.386;2023-02-28T13:32:19;95872.22;;;3.73;58.52
13414;BME280;6778;48.136;11.386;2023-02-28T13:35:14;95864.78;;;4.27;57.31
13414;BME280;6778;48.136;11.386;2023-02-28T13:37:47;95873.53;;;4.34;56.77
13414;BME280;6778;48.136;11.386;2023-02-28T13:40:30;95866.81;;;4.64;56.60
13414;BME280;6778;48.136;11.386;2023-02-28T13:43:09;95870.63;;;4.21;55.91
13414;BME280;6778;48.136;11.386;2023-02-28T13:46:08;95875.16;;;4.02;57.50
13414;BME280;6778;48.136;11.386;2023-02-28T13:48:40;95866.84;;;4.48;56.49
13414;BME280;6778;48.136;11.386;2023-02-28T13:51:38;95868.16;;;4.35;56.55
13414;BME280;6778;48.136;11.386;2023-02-28T13:54:26;95864.69;;;4.76;57.00
13414;BME280;6778;48.136;11.386;2023-02-28T13:57:14;95871.03;;;4.57;57.22
13414;BME280;6778;48.136;11.386;2023-02-28T14:00:06;95864.25;;;4.39;56.65